createdAt,value
2018-10-02T00:00:40.080Z,97099.09
2018-10-02T00:03:07.305Z,97093.65
2018-10-02T00:05:34.650Z,97095.73
2018-10-02T00:08:01.895Z,97088.16
2018-10-02T00:10:30.085Z,97092.84
2018-10-02T00:13:03.240Z,97094.48
2018-10-02T00:15:30.515Z,97095.37
2018-10-02T00:17:57.825Z,97098.03
2018-10-02T00:20:25.068Z,97100.62
2018-10-02T00:22:52.362Z,97101.41
2018-10-02T00:25:19.562Z,97096.22
2018-10-02T00:28:50.758Z,97102.95
2018-10-02T00:31:18.093Z,97104.50
2018-10-02T00:33:45.434Z,97089.20
2018-10-02T00:36:13.027Z,97054.56
2018-10-02T00:38:40.337Z,97093.14
2018-10-02T00:41:07.674Z,97089.21
2018-10-02T00:43:34.964Z,97090.23
2018-10-02T00:46:02.223Z,97087.11
2018-10-02T00:48:29.444Z,97087.11
2018-10-02T00:50:56.671Z,97089.51
2018-10-02T00:53:23.992Z,97088.78
2018-10-02T00:55:51.260Z,97091.38
2018-10-02T00:58:18.557Z,97090.33
2018-10-02T01:00:45.854Z,97094.44
2018-10-02T01:03:13.132Z,97093.86
2018-10-02T01:05:40.459Z,97099.23
2018-10-02T01:08:07.778Z,97103.06
2018-10-02T01:10:35.031Z,97098.41
2018-10-02T01:13:02.285Z,97104.16
2018-10-02T01:15:29.554Z,97100.47
2018-10-02T01:17:56.909Z,97104.63
2018-10-02T01:20:24.205Z,97101.27
2018-10-02T01:22:51.439Z,97097.30
2018-10-02T01:25:18.743Z,97099.56
2018-10-02T01:27:46.008Z,97098.55
2018-10-02T01:30:13.303Z,97091.41
2018-10-02T01:32:40.517Z,97097.97
2018-10-02T01:35:07.800Z,97098.27
2018-10-02T01:37:35.082Z,97102.73
2018-10-02T01:40:02.415Z,97102.16
2018-10-02T01:42:29.651Z,97100.53
2018-10-02T01:44:56.943Z,97077.23
2018-10-02T01:47:24.206Z,97099.64
2018-10-02T01:49:51.465Z,97104.16
2018-10-02T01:53:43.218Z,97100.47
2018-10-02T01:56:10.571Z,97098.57
2018-10-02T01:58:38.043Z,97098.56
2018-10-02T02:01:05.344Z,97098.47
2018-10-02T02:03:32.587Z,97106.75
2018-10-02T02:06:00.073Z,97103.39
2018-10-02T02:08:28.008Z,97105.98
2018-10-02T02:10:55.279Z,97109.20
2018-10-02T02:13:22.653Z,97112.17
2018-10-02T02:15:50.023Z,97110.57
2018-10-02T02:18:17.337Z,97122.03
2018-10-02T02:20:44.611Z,97113.27
2018-10-02T02:23:11.896Z,97116.27
2018-10-02T02:25:39.231Z,97116.50
2018-10-02T02:28:06.568Z,97117.45
2018-10-02T02:30:33.919Z,97125.59
2018-10-02T02:33:01.268Z,97119.16
2018-10-02T02:36:53.114Z,97111.69
2018-10-02T02:39:20.439Z,97115.02
2018-10-02T02:41:47.777Z,97054.36
2018-10-02T02:44:15.089Z,97107.20
2018-10-02T02:46:42.391Z,97117.78
2018-10-02T02:49:15.282Z,97117.15
2018-10-02T02:51:42.632Z,97120.12
2018-10-02T02:54:10.037Z,97121.25
2018-10-02T02:56:37.629Z,97123.10
2018-10-02T02:59:05.030Z,97119.73
2018-10-02T03:01:32.447Z,97116.42
2018-10-02T03:04:00.033Z,97114.88
2018-10-02T03:06:27.410Z,97125.98
2018-10-02T03:08:55.009Z,97123.66
2018-10-02T03:11:24.072Z,97129.52
2018-10-02T03:13:51.780Z,97134.86
2018-10-02T03:16:19.407Z,97129.64
2018-10-02T03:18:47.003Z,97133.23
2018-10-02T03:21:14.606Z,97134.30
2018-10-02T03:23:42.019Z,97137.66
2018-10-02T03:26:09.845Z,97144.42
2018-10-02T03:28:37.591Z,97142.62
2018-10-02T03:31:05.489Z,97144.77
2018-10-02T03:33:34.693Z,97142.91
2018-10-02T03:36:03.859Z,97139.55
2018-10-02T03:38:31.402Z,97138.52
2018-10-02T03:40:58.954Z,97139.64
2018-10-02T03:43:26.405Z,97140.59
2018-10-02T03:45:53.987Z,97131.38
2018-10-02T03:48:21.264Z,97133.05
2018-10-02T03:50:48.537Z,97130.03
2018-10-02T03:53:15.884Z,97130.55
2018-10-02T03:55:43.236Z,97133.57
2018-10-02T03:58:10.568Z,97129.57
2018-10-02T04:00:37.866Z,97132.97
2018-10-02T04:03:05.229Z,97137.23
2018-10-02T04:05:32.574Z,97144.77
2018-10-02T04:07:59.831Z,97147.56
2018-10-02T04:10:27.187Z,97152.56
2018-10-02T04:12:54.485Z,97147.55
2018-10-02T04:15:21.846Z,97151.59
2018-10-02T04:17:49.096Z,97154.57
2018-10-02T04:20:16.415Z,97152.72
2018-10-02T04:22:43.719Z,97147.82
2018-10-02T04:25:11.038Z,97152.72
2018-10-02T04:27:38.490Z,97152.97
2018-10-02T04:30:05.991Z,97156.98
2018-10-02T04:32:33.306Z,97160.86
2018-10-02T04:35:00.632Z,97160.47
2018-10-02T04:37:27.942Z,97162.57
2018-10-02T04:39:55.265Z,97149.66
2018-10-02T04:42:22.691Z,97149.14
2018-10-02T04:44:50.071Z,97145.69
2018-10-02T04:47:17.398Z,97145.44
2018-10-02T04:49:44.757Z,97141.86
2018-10-02T04:52:12.174Z,97141.91
2018-10-02T04:54:39.425Z,97140.22
2018-10-02T04:57:06.757Z,97145.27
2018-10-02T04:59:34.704Z,97148.92
2018-10-02T05:02:02.112Z,97155.14
2018-10-02T05:04:29.407Z,97164.34
2018-10-02T05:06:56.798Z,97152.95
2018-10-02T05:09:24.056Z,97145.78
2018-10-02T05:11:51.333Z,97143.02
2018-10-02T05:14:18.682Z,97140.73
2018-10-02T05:16:46.166Z,97139.28
2018-10-02T05:19:13.557Z,97140.10
2018-10-02T05:21:40.953Z,97137.64
2018-10-02T05:24:08.279Z,97139.32
2018-10-02T05:26:35.496Z,97139.16
2018-10-02T05:29:02.881Z,97145.96
2018-10-02T05:31:30.237Z,97142.00
2018-10-02T05:33:57.568Z,97139.47
2018-10-02T05:36:24.892Z,97136.67
2018-10-02T05:38:52.156Z,97136.38
2018-10-02T05:41:19.444Z,97134.56
2018-10-02T05:43:46.772Z,97138.17
2018-10-02T05:46:14.060Z,97140.19
2018-10-02T05:48:41.381Z,97146.58
2018-10-02T05:51:08.779Z,97153.02
2018-10-02T05:53:36.239Z,97157.95
2018-10-02T05:56:03.662Z,97160.59
2018-10-02T05:58:31.143Z,97165.65
2018-10-02T06:00:58.489Z,97168.89
2018-10-02T06:03:25.790Z,97167.05
2018-10-02T06:05:53.191Z,97162.48
2018-10-02T06:08:20.514Z,97169.21
2018-10-02T06:10:48.092Z,97168.31
2018-10-02T06:13:15.416Z,97173.55
2018-10-02T06:15:42.814Z,97167.94
2018-10-02T06:18:10.149Z,97170.09
2018-10-02T06:20:37.493Z,97175.41
2018-10-02T06:23:04.941Z,97185.57
2018-10-02T06:25:32.280Z,97186.06
2018-10-02T06:27:59.592Z,97189.52
2018-10-02T06:30:27.017Z,97193.88
2018-10-02T06:32:54.325Z,97184.36
2018-10-02T06:35:21.508Z,97183.54
2018-10-02T06:37:48.796Z,97187.42
2018-10-02T06:40:16.086Z,97193.50
2018-10-02T06:42:43.421Z,97195.44
2018-10-02T06:45:10.864Z,97188.19
2018-10-02T06:47:38.423Z,97192.53
2018-10-02T06:50:05.920Z,97189.66
2018-10-02T06:52:33.434Z,97188.84
2018-10-02T06:55:00.496Z,97188.05
2018-10-02T06:57:27.778Z,97190.16
2018-10-02T06:59:54.997Z,97189.67
2018-10-02T07:02:22.521Z,97187.36
2018-10-02T07:04:50.502Z,97193.19
2018-10-02T07:07:17.873Z,97184.94
2018-10-02T07:09:45.145Z,97197.25
2018-10-02T07:12:12.498Z,97191.31
2018-10-02T07:14:39.833Z,97191.48
2018-10-02T07:17:07.095Z,97180.64
2018-10-02T07:19:34.497Z,97181.22
2018-10-02T07:22:01.748Z,97180.84
2018-10-02T07:24:29.056Z,97183.88
2018-10-02T07:26:56.449Z,97183.52
2018-10-02T07:29:23.740Z,97197.08
2018-10-02T07:31:50.983Z,97203.84
2018-10-02T07:34:18.300Z,97209.41
2018-10-02T07:36:45.746Z,97198.28
2018-10-02T07:39:13.130Z,97208.33
2018-10-02T07:41:40.458Z,97204.44
2018-10-02T07:44:07.896Z,97206.42
2018-10-02T07:46:35.192Z,97203.52
2018-10-02T07:49:02.455Z,97205.81
2018-10-02T07:51:29.698Z,97202.83
2018-10-02T07:53:57.063Z,97193.89
2018-10-02T07:56:24.390Z,97198.52
2018-10-02T07:58:51.707Z,97200.81
2018-10-02T08:01:19.040Z,97207.69
2018-10-02T08:03:46.807Z,97204.24
2018-10-02T08:06:14.150Z,97203.34
2018-10-02T08:08:41.508Z,97202.94
2018-10-02T08:11:09.047Z,97199.96
2018-10-02T08:13:36.418Z,97206.14
2018-10-02T08:16:03.726Z,97206.63
2018-10-02T08:18:31.049Z,97208.11
2018-10-02T08:20:58.460Z,97208.92
2018-10-02T08:23:25.741Z,97210.61
2018-10-02T08:25:53.099Z,97204.33
2018-10-02T08:28:21.159Z,97206.86
2018-10-02T08:30:49.062Z,97199.91
2018-10-02T08:33:16.335Z,97189.69
2018-10-02T08:35:43.860Z,97154.59
2018-10-02T08:38:11.147Z,97192.90
2018-10-02T08:40:38.553Z,97178.45
2018-10-02T08:43:06.067Z,97179.52
2018-10-02T08:45:33.326Z,97181.48
2018-10-02T08:48:00.605Z,97184.94
2018-10-02T08:50:28.040Z,97181.63
2018-10-02T08:52:55.440Z,97177.97
2018-10-02T08:55:22.765Z,97175.73
2018-10-02T08:57:50.066Z,97168.80
2018-10-02T09:00:17.332Z,97164.83
2018-10-02T09:02:44.630Z,97181.02
2018-10-02T09:05:11.831Z,97183.64
2018-10-02T09:07:39.176Z,97182.64
2018-10-02T09:10:06.479Z,97189.37
2018-10-02T09:12:33.807Z,97187.30
2018-10-02T09:15:01.138Z,97193.37
2018-10-02T09:17:28.429Z,97189.74
2018-10-02T09:19:55.751Z,97192.28
2018-10-02T09:22:23.250Z,97200.55
2018-10-02T09:24:50.502Z,97201.69
2018-10-02T09:27:17.846Z,97195.48
2018-10-02T09:29:50.859Z,97198.55
2018-10-02T09:32:23.924Z,97197.95
2018-10-02T09:34:56.914Z,97194.97
2018-10-02T09:37:29.985Z,97183.06
2018-10-02T09:40:03.267Z,97192.05
2018-10-02T09:42:36.299Z,97181.73
2018-10-02T09:45:03.712Z,97182.77
2018-10-02T09:47:30.993Z,97179.17
2018-10-02T09:49:58.451Z,97176.54
2018-10-02T09:52:25.699Z,97186.33
2018-10-02T09:54:52.982Z,97186.34
2018-10-02T09:57:20.326Z,97187.96
2018-10-02T09:59:47.633Z,97191.19
2018-10-02T10:02:20.757Z,97189.45
2018-10-02T10:04:48.047Z,97186.21
2018-10-02T10:07:15.369Z,97187.03
2018-10-02T10:09:42.677Z,97189.67
2018-10-02T10:12:09.982Z,97184.41
2018-10-02T10:14:37.439Z,97181.89
2018-10-02T10:17:04.899Z,97181.63
2018-10-02T10:19:32.074Z,97182.73
2018-10-02T10:21:59.365Z,97177.05
2018-10-02T10:24:26.753Z,97175.73
2018-10-02T10:26:54.102Z,97188.35
2018-10-02T10:29:21.337Z,97185.92
2018-10-02T10:31:48.728Z,97189.13
2018-10-02T10:34:16.041Z,97184.07
2018-10-02T10:36:43.405Z,97179.66
2018-10-02T10:39:10.987Z,97175.83
2018-10-02T10:41:38.480Z,97172.34
2018-10-02T10:44:06.078Z,97164.75
2018-10-02T10:46:33.722Z,97164.55
2018-10-02T10:49:00.940Z,97164.02
2018-10-02T10:51:28.198Z,97173.14
2018-10-02T10:53:55.565Z,97166.15
2018-10-02T10:56:22.865Z,97168.70
2018-10-02T10:58:50.238Z,97174.02
2018-10-02T11:01:17.540Z,97180.39
2018-10-02T11:03:44.881Z,97164.38
2018-10-02T11:06:12.206Z,97165.91
2018-10-02T11:08:39.528Z,97158.39
2018-10-02T11:11:06.772Z,97147.97
2018-10-02T11:13:34.133Z,97156.98
2018-10-02T11:16:01.603Z,97161.99
2018-10-02T11:18:28.924Z,97167.25
2018-10-02T11:20:56.303Z,97158.19
2018-10-02T11:23:23.653Z,97161.02
2018-10-02T11:25:51.137Z,97158.31
2018-10-02T11:28:18.351Z,97154.51
2018-10-02T11:30:45.619Z,97167.67
2018-10-02T11:33:12.863Z,97151.53
2018-10-02T11:35:40.153Z,97144.33
2018-10-02T11:38:07.434Z,97138.81
2018-10-02T11:40:34.808Z,97128.00
2018-10-02T11:43:02.049Z,97134.20
2018-10-02T11:45:29.396Z,97129.19
2018-10-02T11:47:56.759Z,97136.83
2018-10-02T11:50:24.035Z,97123.70
2018-10-02T11:52:51.328Z,97122.05
2018-10-02T11:55:18.628Z,97109.80
2018-10-02T11:57:45.918Z,97097.04
2018-10-02T12:00:13.320Z,97096.34
2018-10-02T12:02:40.702Z,97091.24
2018-10-02T12:05:07.929Z,97102.33
2018-10-02T12:07:35.235Z,97110.64
2018-10-02T12:10:03.120Z,97115.41
2018-10-02T12:12:30.450Z,97104.33
2018-10-02T12:14:57.846Z,97113.80
2018-10-02T12:17:25.177Z,97104.80
2018-10-02T12:19:52.757Z,97107.86
2018-10-02T12:22:19.804Z,97108.04
2018-10-02T12:24:47.225Z,97112.14
2018-10-02T12:27:14.552Z,97101.56
2018-10-02T12:29:41.809Z,97102.02
2018-10-02T12:32:09.263Z,97104.87
2018-10-02T12:34:36.764Z,97099.78
2018-10-02T12:37:04.312Z,97103.42
2018-10-02T12:39:31.619Z,97109.00
2018-10-02T12:41:58.978Z,97111.16
2018-10-02T12:44:26.432Z,97099.22
2018-10-02T12:46:53.726Z,97090.28
2018-10-02T12:49:21.051Z,97094.30
2018-10-02T12:51:48.364Z,97085.90
2018-10-02T12:54:15.700Z,97089.80
2018-10-02T12:56:42.959Z,97098.01
2018-10-02T12:59:10.312Z,97093.45
2018-10-02T13:01:37.522Z,97092.85
2018-10-02T13:04:05.059Z,97090.20
2018-10-02T13:06:32.343Z,97093.73
2018-10-02T13:08:59.657Z,97086.49
2018-10-02T13:11:26.965Z,97091.95
2018-10-02T13:13:54.256Z,97084.45
2018-10-02T13:16:21.558Z,97080.55
2018-10-02T13:18:49.047Z,97084.31
2018-10-02T13:21:16.408Z,97081.28
2018-10-02T13:23:43.662Z,97081.67
2018-10-02T13:26:10.965Z,97074.13
2018-10-02T13:28:38.254Z,97073.06
2018-10-02T13:31:05.664Z,97066.81
2018-10-02T13:33:32.983Z,97065.75
2018-10-02T13:36:02.693Z,97065.13
2018-10-02T13:38:30.070Z,97055.73
2018-10-02T13:40:57.415Z,97056.17
2018-10-02T13:43:24.727Z,97064.14
2018-10-02T13:45:51.967Z,97071.16
2018-10-02T13:48:19.302Z,97066.95
2018-10-02T13:50:46.686Z,97063.77
2018-10-02T13:53:14.287Z,97058.16
2018-10-02T13:55:41.616Z,97064.38
2018-10-02T13:58:09.006Z,97062.16
2018-10-02T14:00:36.338Z,97062.98
2018-10-02T14:03:03.636Z,97062.60
2018-10-02T14:05:30.901Z,97057.40
2018-10-02T14:07:58.203Z,97056.34
2018-10-02T14:10:25.442Z,97049.50
2018-10-02T14:12:53.074Z,97054.12
2018-10-02T14:15:20.429Z,97052.44
2018-10-02T14:17:47.792Z,97045.95
2018-10-02T14:20:15.278Z,97051.66
2018-10-02T14:22:42.844Z,97050.05
2018-10-02T14:25:10.181Z,97047.89
2018-10-02T14:27:37.463Z,97043.30
2018-10-02T14:30:04.914Z,97038.70
2018-10-02T14:32:32.205Z,97039.83
2018-10-02T14:34:59.550Z,97037.57
2018-10-02T14:37:26.978Z,97037.09
2018-10-02T14:39:54.328Z,97033.05
2018-10-02T14:42:21.669Z,97032.25
2018-10-02T14:44:48.978Z,97025.07
2018-10-02T14:47:16.273Z,97024.14
2018-10-02T14:49:43.602Z,97026.80
2018-10-02T14:52:10.937Z,97029.25
2018-10-02T14:54:38.305Z,97029.45
2018-10-02T14:57:05.890Z,97025.78
2018-10-02T14:59:33.181Z,97023.73
2018-10-02T15:02:00.491Z,97035.51
2018-10-02T15:04:27.746Z,97032.10
2018-10-02T15:06:55.118Z,97032.93
2018-10-02T15:09:22.431Z,97026.92
2018-10-02T15:11:49.718Z,97023.98
2018-10-02T15:14:17.043Z,97021.69
2018-10-02T15:16:44.369Z,97023.66
2018-10-02T15:19:11.617Z,97030.42
2018-10-02T15:21:38.958Z,97027.08
2018-10-02T15:24:06.285Z,97025.03
2018-10-02T15:26:33.626Z,97020.23
2018-10-02T15:29:00.928Z,97014.58
2018-10-02T15:31:28.361Z,97024.52
2018-10-02T15:33:55.813Z,97029.77
2018-10-02T15:36:23.079Z,97030.43
2018-10-02T15:38:50.401Z,97027.38
2018-10-02T15:41:17.756Z,97023.63
2018-10-02T15:43:45.081Z,97025.52
2018-10-02T15:46:12.422Z,97025.45
2018-10-02T15:48:39.666Z,97020.31
2018-10-02T15:51:07.106Z,97015.10
2018-10-02T15:53:34.363Z,97011.23
2018-10-02T15:56:01.657Z,97014.02
2018-10-02T15:58:28.920Z,97018.11
2018-10-02T16:00:56.215Z,97021.27
2018-10-02T16:03:23.497Z,97022.55
2018-10-02T16:05:50.914Z,96994.35
2018-10-02T16:08:18.191Z,97025.63
2018-10-02T16:10:45.482Z,97029.64
2018-10-02T16:13:12.746Z,97033.63
2018-10-02T16:15:40.075Z,97036.61
2018-10-02T16:18:07.490Z,97036.30
2018-10-02T16:20:34.782Z,97036.94
2018-10-02T16:23:02.094Z,97037.49
2018-10-02T16:25:29.659Z,97034.52
2018-10-02T16:27:56.991Z,97038.55
2018-10-02T16:30:24.252Z,97038.70
2018-10-02T16:32:51.489Z,97047.06
2018-10-02T16:35:18.801Z,97056.25
2018-10-02T16:37:46.096Z,97049.22
2018-10-02T16:40:13.454Z,97049.92
2018-10-02T16:42:40.732Z,97052.59
2018-10-02T16:45:08.041Z,97062.08
2018-10-02T16:47:35.366Z,97058.35
2018-10-02T16:50:02.708Z,97055.95
2018-10-02T16:52:30.019Z,97053.13
2018-10-02T16:54:57.327Z,97067.88
2018-10-02T16:57:24.673Z,97061.93
2018-10-02T16:59:52.002Z,97070.25
2018-10-02T17:02:19.317Z,97060.95
2018-10-02T17:04:46.543Z,97070.38
2018-10-02T17:07:13.969Z,97076.13
2018-10-02T17:09:41.209Z,97074.53
2018-10-02T17:12:08.475Z,97078.98
2018-10-02T17:14:35.741Z,97073.16
2018-10-02T17:17:03.119Z,97073.43
2018-10-02T17:19:30.392Z,97071.68
2018-10-02T17:21:57.750Z,97072.05
2018-10-02T17:24:25.173Z,97077.48
2018-10-02T17:26:52.477Z,97077.86
2018-10-02T17:29:19.740Z,97073.96
2018-10-02T17:31:47.033Z,97070.31
2018-10-02T17:34:14.269Z,97072.80
2018-10-02T17:36:41.594Z,97070.83
2018-10-02T17:39:10.190Z,97072.23
2018-10-02T17:41:37.871Z,97078.79
2018-10-02T17:44:05.163Z,97086.67
2018-10-02T17:46:32.677Z,97093.42
2018-10-02T17:49:00.033Z,97090.27
2018-10-02T17:51:27.362Z,97102.35
2018-10-02T17:53:54.709Z,97097.25
2018-10-02T17:56:21.955Z,97092.32
2018-10-02T17:58:49.356Z,97103.83
2018-10-02T18:01:16.788Z,97095.79
2018-10-02T18:03:43.972Z,97089.14
2018-10-02T18:06:11.234Z,97103.34
2018-10-02T18:08:38.505Z,97105.00
2018-10-02T18:11:06.023Z,97097.34
2018-10-02T18:13:33.404Z,97099.63
2018-10-02T18:16:00.662Z,97105.24
2018-10-02T18:18:27.923Z,97113.88
2018-10-02T18:20:55.200Z,97111.20
2018-10-02T18:23:22.482Z,97114.97
2018-10-02T18:25:49.847Z,97114.72
2018-10-02T18:28:17.179Z,97108.59
2018-10-02T18:30:44.473Z,97117.77
2018-10-02T18:33:11.755Z,97125.13
2018-10-02T18:35:39.002Z,97118.08
2018-10-02T18:38:06.513Z,97127.25
2018-10-02T18:40:33.797Z,97122.91
2018-10-02T18:43:01.112Z,97130.78
2018-10-02T18:45:28.393Z,97131.70
2018-10-02T18:47:55.646Z,97135.16
2018-10-02T18:50:23.097Z,97136.84
2018-10-02T18:52:50.340Z,97143.47
2018-10-02T18:55:17.642Z,97146.14
2018-10-02T18:57:44.947Z,97144.84
2018-10-02T19:00:12.363Z,97149.05
2018-10-02T19:02:39.706Z,97150.35
2018-10-02T19:05:07.008Z,97156.78
2018-10-02T19:07:34.417Z,97157.09
2018-10-02T19:10:01.803Z,97157.54
2018-10-02T19:12:29.126Z,97156.92
2018-10-02T19:14:56.448Z,97155.55
2018-10-02T19:17:23.811Z,97165.41
2018-10-02T19:19:56.721Z,97164.05
2018-10-02T19:22:23.982Z,97167.33
2018-10-02T19:24:51.505Z,97161.98
2018-10-02T19:27:18.885Z,97169.31
2018-10-02T19:29:50.774Z,97171.84
2018-10-02T19:32:18.092Z,97178.48
2018-10-02T19:34:45.832Z,97181.64
2018-10-02T19:37:18.695Z,97175.44
2018-10-02T19:39:46.012Z,97170.00
2018-10-02T19:42:13.650Z,97174.14
2018-10-02T19:44:40.948Z,97175.06
2018-10-02T19:47:08.244Z,97181.70
2018-10-02T19:49:36.046Z,97178.42
2018-10-02T19:52:11.024Z,97178.91
2018-10-02T19:54:38.374Z,97177.98
2018-10-02T19:57:06.492Z,97175.14
2018-10-02T19:59:33.907Z,97172.16
2018-10-02T20:02:01.342Z,97174.86
2018-10-02T20:04:28.644Z,97169.55
2018-10-02T20:06:56.094Z,97165.28
2018-10-02T20:09:23.530Z,97159.70
2018-10-02T20:11:50.836Z,97164.97
2018-10-02T20:14:18.156Z,97164.28
2018-10-02T20:16:45.380Z,97162.98
2018-10-02T20:19:12.747Z,97176.37
2018-10-02T20:21:40.068Z,97177.60
2018-10-02T20:24:07.541Z,97181.64
2018-10-02T20:26:34.840Z,97175.69
2018-10-02T20:29:02.669Z,97181.13
2018-10-02T20:31:31.481Z,97183.39
2018-10-02T20:33:58.923Z,97196.56
2018-10-02T20:36:26.303Z,97198.31
2018-10-02T20:38:53.592Z,97199.06
2018-10-02T20:41:20.893Z,97209.47
2018-10-02T20:43:48.325Z,97214.30
2018-10-02T20:46:15.609Z,97212.01
2018-10-02T20:48:42.896Z,97211.87
2018-10-02T20:51:10.192Z,97205.36
2018-10-02T20:53:37.506Z,97194.03
2018-10-02T20:56:04.833Z,97195.16
2018-10-02T20:58:32.178Z,97192.28
2018-10-02T21:00:59.451Z,97183.01
2018-10-02T21:03:26.873Z,97180.58
2018-10-02T21:05:54.188Z,97172.78
2018-10-02T21:08:21.495Z,97172.47
2018-10-02T21:10:48.866Z,97170.89
2018-10-02T21:13:16.127Z,97180.61
2018-10-02T21:15:43.604Z,97182.73
2018-10-02T21:18:10.678Z,97178.38
2018-10-02T21:20:38.115Z,97178.59
2018-10-02T21:23:05.382Z,97165.45
2018-10-02T21:25:32.630Z,97167.33
2018-10-02T21:28:00.019Z,97162.23
2018-10-02T21:30:27.311Z,97160.31
2018-10-02T21:32:54.639Z,97162.91
2018-10-02T21:35:21.991Z,97166.81
2018-10-02T21:37:49.306Z,97169.42
2018-10-02T21:40:16.763Z,97170.27
2018-10-02T21:42:43.981Z,97168.36
2018-10-02T21:45:11.259Z,97169.80
2018-10-02T21:47:38.609Z,97177.33
2018-10-02T21:50:06.034Z,97177.53
2018-10-02T21:52:33.348Z,97180.54
2018-10-02T21:55:00.600Z,97179.23
2018-10-02T21:57:27.981Z,97191.31
2018-10-02T21:59:55.337Z,97183.58
2018-10-02T22:02:22.571Z,97183.03
2018-10-02T22:04:49.897Z,97181.73
2018-10-02T22:07:17.203Z,97191.91
2018-10-02T22:09:44.489Z,97189.09
2018-10-02T22:12:11.867Z,97189.91
2018-10-02T22:14:39.209Z,97192.34
2018-10-02T22:17:06.524Z,97195.86
2018-10-02T22:19:33.802Z,97185.93
2018-10-02T22:22:01.125Z,97185.62
2018-10-02T22:24:28.422Z,97187.47
2018-10-02T22:26:55.762Z,97182.03
2018-10-02T22:29:23.154Z,97176.83
2018-10-02T22:31:50.566Z,97167.42
2018-10-02T22:34:17.872Z,97174.16
2018-10-02T22:36:45.233Z,97171.31
2018-10-02T22:39:12.509Z,97167.27
2018-10-02T22:41:39.769Z,97164.98
2018-10-02T22:44:07.273Z,97162.83
2018-10-02T22:46:34.568Z,97147.23
2018-10-02T22:49:01.976Z,97118.20
2018-10-02T22:51:29.419Z,97156.88
2018-10-02T22:53:56.988Z,97164.30
2018-10-02T22:56:24.229Z,97174.30
2018-10-02T22:58:51.560Z,97151.73
2018-10-02T23:01:18.921Z,97170.70
2018-10-02T23:03:46.165Z,97170.63
2018-10-02T23:06:13.459Z,97175.05
2018-10-02T23:08:40.810Z,97178.67
2018-10-02T23:11:08.205Z,97176.77
2018-10-02T23:13:35.440Z,97185.53
2018-10-02T23:16:02.748Z,97183.52
2018-10-02T23:18:30.042Z,97188.06
2018-10-02T23:20:57.316Z,97174.92
2018-10-02T23:23:24.628Z,97177.73
2018-10-02T23:25:52.022Z,97174.44
2018-10-02T23:28:19.353Z,97160.75
2018-10-02T23:30:46.646Z,97156.58
2018-10-02T23:33:13.903Z,97154.97
2018-10-02T23:35:41.180Z,97157.94
2018-10-02T23:38:08.640Z,97156.50
2018-10-02T23:40:35.989Z,97156.32
2018-10-02T23:43:03.329Z,97157.94
2018-10-02T23:45:30.611Z,97150.13
2018-10-02T23:47:57.913Z,97145.17
2018-10-02T23:50:25.169Z,97151.13
2018-10-02T23:52:52.420Z,97145.09
2018-10-02T23:55:19.647Z,97146.41
2018-10-02T23:57:46.911Z,97151.91
